Time;durP1;ratioP1;P1;durP2;ratioP2;P2;SDS_P1;SDS_P2;PMS_P1;PMS_P2;Temp;Humidity;BMP_temperature;BMP_pressure;BME280_temperature;BME280_humidity;BME280_pressure;Samples;Min_cycle;Max_cycle;Signal;HPM_P1;HPM_P2
2022/05/08 00:03:35;;;;;;;6.65;4.43;;;;;;;9.95;71.58;99870.81;8239388;28;20077;-72
2022/05/08 00:07:36;;;;;;;11.35;5.28;;;;;;;9.92;71.59;99871.41;8209043;28;20054;-72
2022/05/08 00:11:37;;;;;;;7.63;4.95;;;;;;;9.86;71.93;99867.94;8232451;28;20061;-72
2022/05/08 00:15:38;;;;;;;8.15;5.40;;;;;;;9.84;71.88;99866.63;8222981;28;20051;-72
2022/05/08 00:19:40;;;;;;;8.32;5.53;;;;;;;9.82;71.84;99866.13;8204159;28;20051;-72
2022/05/08 00:23:41;;;;;;;11.38;6.63;;;;;;;9.78;71.85;99865.09;8199844;28;20055;-72
2022/05/08 00:27:42;;;;;;;11.18;6.78;;;;;;;9.69;71.94;99863.00;8217422;28;20057;-72
2022/05/08 00:31:43;;;;;;;15.45;7.53;;;;;;;9.63;72.52;99864.13;8213519;28;20055;-72
2022/05/08 00:35:44;;;;;;;13.82;7.85;;;;;;;9.58;72.95;99863.34;8199627;28;20046;-72
2022/05/08 00:39:45;;;;;;;15.38;8.10;;;;;;;9.56;72.65;99858.28;8198342;29;20471;-72
2022/05/08 00:43:46;;;;;;;12.73;7.82;;;;;;;9.52;72.60;99856.41;8200984;28;20058;-72
2022/05/08 00:47:47;;;;;;;14.80;7.03;;;;;;;9.46;73.15;99857.56;8210075;28;20137;-72
2022/05/08 00:51:49;;;;;;;10.90;7.32;;;;;;;9.39;73.27;99854.38;8202577;28;20051;-71
2022/05/08 00:55:50;;;;;;;15.48;7.68;;;;;;;9.31;73.22;99855.75;8209257;28;20058;-72
2022/05/08 00:59:51;;;;;;;13.05;7.45;;;;;;;9.18;73.89;99857.22;8200596;28;20499;-71
2022/05/08 01:03:52;;;;;;;14.25;7.53;;;;;;;9.09;74.19;99863.50;8192238;28;20142;-73
2022/05/08 01:07:53;;;;;;;10.77;7.00;;;;;;;9.04;74.35;99866.25;8201382;28;20134;-72
2022/05/08 01:11:54;;;;;;;14.45;7.80;;;;;;;8.93;74.36;99859.31;8212828;28;20062;-72
2022/05/08 01:15:56;;;;;;;14.15;7.28;;;;;;;8.86;74.74;99857.72;8224158;28;20431;-72
2022/05/08 01:19:56;;;;;;;10.88;6.40;;;;;;;8.81;74.73;99857.75;8198536;28;20051;-71
2022/05/08 01:23:58;;;;;;;12.18;6.50;;;;;;;8.80;74.68;99850.75;8198683;28;20043;-72
2022/05/08 01:27:59;;;;;;;9.88;6.45;;;;;;;8.80;74.68;99850.75;8218360;28;20063;-71
2022/05/08 01:32:01;;;;;;;13.10;5.88;;;;;;;8.76;74.72;99849.69;8192702;28;20046;-72
2022/05/08 01:36:02;;;;;;;9.38;5.93;;;;;;;8.74;74.82;99857.25;8229485;28;20494;-72
2022/05/08 01:40:04;;;;;;;10.05;5.80;;;;;;;8.68;75.27;99852.16;8228211;28;20065;-71
2022/05/08 01:44:05;;;;;;;11.68;5.45;;;;;;;8.66;75.59;99859.72;8220408;28;20421;-72
2022/05/08 01:48:22;;;;;;;9.82;5.45;;;;;;;8.63;75.68;99850.31;8236502;28;20050;-72
2022/05/08 01:52:25;;;;;;;13.18;5.82;;;;;;;8.62;75.25;99848.69;8222960;28;20102;-72
2022/05/08 01:56:26;;;;;;;12.68;5.05;;;;;;;8.62;75.37;99847.91;8204028;28;20207;-72
2022/05/08 02:00:28;;;;;;;11.52;5.78;;;;;;;8.60;75.66;99840.09;8203140;28;20495;-72
2022/05/08 02:04:29;;;;;;;13.75;6.13;;;;;;;8.59;75.70;99843.88;8202929;28;20051;-72
2022/05/08 02:08:30;;;;;;;10.80;5.88;;;;;;;8.53;76.00;99850.34;8202105;28;20051;-72
2022/05/08 02:12:31;;;;;;;7.70;5.63;;;;;;;8.55;75.74;99863.56;8204933;28;20083;-71
2022/05/08 02:16:32;;;;;;;9.77;5.32;;;;;;;8.49;75.76;99865.47;8213558;28;20074;-72
2022/05/08 02:20:33;;;;;;;11.73;5.80;;;;;;;8.35;75.85;99859.06;8203410;28;20511;-72
2022/05/08 02:24:34;;;;;;;20.27;6.15;;;;;;;8.28;76.43;99872.78;8170321;28;20058;-71
2022/05/08 02:28:36;;;;;;;13.77;6.55;;;;;;;8.28;76.28;99869.28;8218744;28;20054;-72
2022/05/08 02:32:37;;;;;;;8.38;6.10;;;;;;;8.26;76.67;99860.66;8234614;28;20411;-71
2022/05/08 02:36:39;;;;;;;12.23;6.25;;;;;;;8.25;76.59;99859.09;8213676;28;20098;-72
2022/05/08 02:40:40;;;;;;;13.43;6.25;;;;;;;8.24;76.50;99846.69;8201019;28;20045;-72
2022/05/08 02:44:41;;;;;;;11.27;6.03;;;;;;;8.23;76.64;99855.84;8198779;28;20052;-72
2022/05/08 02:48:42;;;;;;;12.98;7.15;;;;;;;8.23;76.43;99851.28;8201263;28;20138;-72
2022/05/08 02:52:43;;;;;;;11.57;6.30;;;;;;;8.21;76.73;99852.63;8203833;28;20054;-72
2022/05/08 03:01:07;;;;;;;11.13;6.35;;;;;;;8.19;76.75;99852.09;8178243;28;20051;-72
2022/05/08 03:05:08;;;;;;;13.23;6.07;;;;;;;8.17;77.06;99854.25;8174884;29;20430;-73
2022/05/08 03:09:09;;;;;;;12.80;6.50;;;;;;;8.13;77.20;99861.25;8173336;29;20532;-72
2022/05/08 03:13:11;;;;;;;11.40;6.88;;;;;;;8.11;77.30;99858.03;8193169;28;20039;-72
2022/05/08 03:17:12;;;;;;;10.43;6.70;;;;;;;8.07;77.64;99861.28;8195550;29;20047;-72
2022/05/08 03:21:13;;;;;;;13.25;6.18;;;;;;;8.06;77.50;99856.97;8177465;28;20529;-72
2022/05/08 03:25:14;;;;;;;15.40;6.55;;;;;;;8.09;77.25;99865.59;8173072;28;20389;-72
2022/05/08 03:29:15;;;;;;;10.68;6.65;;;;;;;8.09;77.66;99862.91;8177982;28;20043;-71
2022/05/08 03:33:17;;;;;;;10.75;6.65;;;;;;;8.07;77.64;99858.59;8175547;28;20071;-72
2022/05/08 03:37:18;;;;;;;11.25;6.65;;;;;;;8.06;77.77;99861.53;8170062;29;20050;-72
2022/05/08 03:41:19;;;;;;;14.60;7.35;;;;;;;8.09;77.65;99860.22;8183322;28;20410;-71
2022/05/08 03:45:20;;;;;;;12.95;7.30;;;;;;;8.12;77.70;99865.03;8176519;28;20142;-72
2022/05/08 03:49:21;;;;;;;12.30;7.07;;;;;;;8.15;77.85;99864.47;8184652;28;20186;-71
2022/05/08 03:53:22;;;;;;;14.52;6.68;;;;;;;8.15;77.81;99864.47;8181066;28;20475;-72
2022/05/08 03:57:23;;;;;;;15.38;6.43;;;;;;;8.19;77.97;99865.56;8177418;28;20055;-72
2022/05/08 04:01:25;;;;;;;11.52;6.60;;;;;;;8.28;77.73;99863.91;8204191;28;20475;-72
2022/05/08 04:05:26;;;;;;;16.60;6.70;;;;;;;8.41;77.56;99863.31;8175620;28;20056;-72
2022/05/08 04:09:28;;;;;;;14.15;6.82;;;;;;;8.51;77.16;99871.38;8175091;28;20059;-72
2022/05/08 04:13:29;;;;;;;8.65;6.15;;;;;;;8.66;77.41;99882.06;8193215;28;20062;-72
2022/05/08 04:17:31;;;;;;;16.25;6.55;;;;;;;8.80;78.02;99893.03;8199209;28;20150;-72
2022/05/08 04:21:33;;;;;;;11.68;6.70;;;;;;;8.90;77.62;99893.78;8199284;28;20419;-72
2022/05/08 04:25:34;;;;;;;12.82;7.20;;;;;;;9.05;77.38;99900.97;8200426;28;20039;-72
2022/05/08 04:29:35;;;;;;;11.90;7.10;;;;;;;9.23;76.71;99891.41;8228313;28;20051;-73
2022/05/08 04:33:36;;;;;;;11.75;6.85;;;;;;;9.36;77.40;99906.94;8229269;28;20189;-72
2022/05/08 04:37:37;;;;;;;11.75;6.95;;;;;;;9.45;77.53;99897.19;8210972;28;20082;-72
2022/05/08 04:41:38;;;;;;;20.50;7.78;;;;;;;9.65;76.77;99905.09;8197549;29;20055;-72
2022/05/08 04:45:39;;;;;;;15.52;7.68;;;;;;;9.91;76.18;99902.16;8200095;28;20128;-72
2022/05/08 04:49:41;;;;;;;14.85;7.03;;;;;;;10.20;75.60;99904.88;8203232;28;20052;-72
2022/05/08 04:53:42;;;;;;;15.20;7.45;;;;;;;10.42;74.80;99903.25;8199139;28;20075;-72
2022/05/08 04:57:43;;;;;;;23.00;7.93;;;;;;;10.54;74.85;99905.56;8208364;28;20054;-72
2022/05/08 05:01:44;;;;;;;14.85;7.45;;;;;;;10.65;75.55;99908.94;8225591;28;20075;-73
2022/05/08 05:05:45;;;;;;;18.35;8.65;;;;;;;10.74;75.04;99920.69;8202954;28;20074;-73
2022/05/08 05:09:46;;;;;;;16.52;8.52;;;;;;;10.94;74.83;99920.44;8219226;28;20055;-73
2022/05/08 05:13:47;;;;;;;17.67;8.50;;;;;;;11.15;75.11;99910.97;8205857;28;20103;-72
2022/05/08 05:17:49;;;;;;;13.60;7.55;;;;;;;11.31;74.74;99912.34;8205233;28;20055;-72
2022/05/08 05:21:50;;;;;;;18.95;7.68;;;;;;;11.44;74.30;99914.28;8205095;28;20043;-71
2022/05/08 05:25:51;;;;;;;15.60;7.80;;;;;;;11.59;73.60;99920.53;8205128;28;20062;-72
2022/05/08 05:29:52;;;;;;;15.82;8.77;;;;;;;11.71;72.50;99923.59;8205436;28;20051;-72
2022/05/08 05:33:53;;;;;;;17.98;8.10;;;;;;;11.85;71.32;99929.88;8202908;28;20061;-72
2022/05/08 05:37:54;;;;;;;18.30;8.27;;;;;;;11.98;70.48;99929.13;8204590;28;20463;-72
2022/05/08 05:41:55;;;;;;;14.13;7.40;;;;;;;12.08;70.53;99939.78;8204572;28;20058;-72
2022/05/08 05:50:17;;;;;;;15.05;7.90;;;;;;;12.42;70.96;99944.03;8204109;28;20070;-72
2022/05/08 05:54:21;;;;;;;15.65;7.63;;;;;;;12.60;70.99;99940.41;8232330;28;20443;-72
2022/05/08 05:58:22;;;;;;;19.92;7.93;;;;;;;12.78;69.93;99941.41;8231647;28;20073;-72
2022/05/08 06:02:23;;;;;;;17.13;7.60;;;;;;;12.97;69.56;99945.59;8230962;28;20058;-72
2022/05/08 06:06:24;;;;;;;16.48;8.38;;;;;;;13.21;68.77;99944.59;8215868;28;20066;-72
2022/05/08 06:10:25;;;;;;;18.70;8.25;;;;;;;13.50;67.69;99948.50;8215232;28;20070;-72
2022/05/08 06:14:26;;;;;;;19.90;9.73;;;;;;;13.71;67.01;99948.81;8199639;28;20086;-72
2022/05/08 06:18:27;;;;;;;16.35;9.25;;;;;;;13.89;66.34;99945.09;8214915;28;20145;-72
2022/05/08 06:22:28;;;;;;;18.45;10.45;;;;;;;14.10;65.55;99960.88;8231159;28;20051;-72
2022/05/08 06:26:29;;;;;;;18.73;9.32;;;;;;;14.22;65.15;99958.41;8203835;28;20414;-72
2022/05/08 06:30:30;;;;;;;17.55;8.73;;;;;;;14.38;65.26;99965.06;8202632;29;20051;-72
2022/05/08 06:34:30;;;;;;;18.63;9.10;;;;;;;14.52;65.33;99963.03;8223580;28;20105;-72
2022/05/08 06:38:32;;;;;;;18.48;8.82;;;;;;;14.62;64.94;99962.75;8221765;28;20055;-72
2022/05/08 06:42:32;;;;;;;15.82;9.02;;;;;;;14.80;63.97;99969.84;8212433;28;20051;-72
2022/05/08 06:46:36;;;;;;;16.88;9.98;;;;;;;14.96;64.23;99972.13;8218021;28;20050;-72
2022/05/08 06:50:37;;;;;;;22.83;9.95;;;;;;;15.13;63.49;99966.72;8210190;28;20047;-72
2022/05/08 06:54:38;;;;;;;16.00;9.63;;;;;;;15.41;62.93;99978.91;8203787;28;20526;-72
2022/05/08 07:03:05;;;;;;;23.85;9.98;;;;;;;15.92;62.03;99966.41;8202226;28;20106;-72
2022/05/08 07:07:06;;;;;;;17.45;9.35;;;;;;;16.22;61.29;99970.88;8202677;28;20498;-72
2022/05/08 07:11:07;;;;;;;21.10;9.23;;;;;;;16.53;61.00;99959.69;8167433;29;20098;-72
2022/05/08 07:15:08;;;;;;;15.57;8.13;;;;;;;16.83;59.65;99968.72;8201557;28;20129;-72
2022/05/08 07:19:10;;;;;;;15.15;8.25;;;;;;;17.02;60.03;99966.38;8210660;28;20046;-73
2022/05/08 07:23:11;;;;;;;17.77;7.80;;;;;;;17.26;59.19;99966.53;8213801;28;20073;-72
2022/05/08 07:27:12;;;;;;;12.63;7.25;;;;;;;17.40;57.62;99976.38;8222391;28;20050;-73
2022/05/08 07:31:16;;;;;;;15.15;7.03;;;;;;;17.47;56.96;99974.72;8232989;28;20047;-72
2022/05/08 07:39:36;;;;;;;;;;;;;;;17.67;56.65;99975.88;8200857;29;20059;-73
2022/05/08 07:43:38;;;;;;;16.92;7.88;;;;;;;17.88;55.57;99982.09;8200069;28;20017;-73
2022/05/08 07:47:40;;;;;;;10.73;5.93;;;;;;;18.01;56.24;99981.03;8200073;28;20084;-73
2022/05/08 07:51:41;;;;;;;15.63;6.88;;;;;;;18.02;54.87;99979.91;8201552;28;20058;-72
2022/05/08 07:55:41;;;;;;;14.13;7.45;;;;;;;18.06;54.94;99986.28;8200753;28;20102;-73
2022/05/08 07:59:43;;;;;;;14.38;7.40;;;;;;;18.12;55.51;99982.19;8200176;28;20055;-72
2022/05/08 08:03:44;;;;;;;13.13;7.45;;;;;;;18.30;55.16;99987.47;8202134;28;20121;-72
2022/05/08 08:07:46;;;;;;;13.95;7.60;;;;;;;18.34;54.94;99991.13;8226092;28;20065;-72
2022/05/08 08:11:47;;;;;;;14.30;7.88;;;;;;;18.35;55.56;100001.72;8201288;28;20114;-71
2022/05/08 08:15:49;;;;;;;16.42;7.55;;;;;;;18.38;55.48;100005.72;8214004;28;20051;-72
2022/05/08 08:19:49;;;;;;;14.23;7.07;;;;;;;18.28;54.36;100009.69;8200086;28;20114;-73
2022/05/08 08:23:51;;;;;;;14.02;7.22;;;;;;;18.22;54.38;100023.91;8201082;28;20058;-73
2022/05/08 08:27:51;;;;;;;14.15;7.82;;;;;;;18.29;54.66;100013.22;8201069;28;20388;-72
2022/05/08 08:31:53;;;;;;;12.90;6.85;;;;;;;18.63;54.66;100012.88;8200132;28;20502;-72
2022/05/08 08:35:55;;;;;;;14.43;7.05;;;;;;;18.80;52.93;100018.13;8227002;28;20051;-72
2022/05/08 08:39:56;;;;;;;10.00;6.22;;;;;;;19.07;52.26;100026.81;8200214;28;20422;-73
2022/05/08 08:48:29;;;;;;;17.00;8.13;;;;;;;18.80;54.26;100029.06;8206598;28;20086;-73
2022/05/08 08:52:30;;;;;;;12.00;7.55;;;;;;;18.51;55.76;100037.41;8220806;28;20048;-72
2022/05/08 08:56:31;;;;;;;12.77;7.75;;;;;;;18.55;56.63;100032.94;8206467;28;20130;-72
2022/05/08 09:00:32;;;;;;;15.98;7.95;;;;;;;18.83;56.39;100044.81;8206440;28;20055;-73
2022/05/08 09:04:36;;;;;;;13.45;7.70;;;;;;;19.01;56.46;100045.41;8206652;28;20071;-73
2022/05/08 09:08:37;;;;;;;12.52;7.38;;;;;;;19.15;56.59;100034.09;8199893;28;20523;-72
2022/05/08 09:12:39;;;;;;;11.40;7.57;;;;;;;19.28;56.33;100038.44;8207038;28;20066;-72
2022/05/08 09:16:54;;;;;;;11.45;7.22;;;;;;;19.41;56.06;100037.25;8205782;28;20055;-72
2022/05/08 09:21:54;;;;;;;19.23;7.00;;;;;;;19.57;56.34;100035.44;8206995;28;20062;-72
2022/05/08 09:25:17;;;;;;;10.80;6.80;;;;;;;19.68;54.18;100042.03;8204391;28;20055;-74
2022/05/08 09:29:22;;;;;;;12.18;5.75;;;;;;;19.83;54.43;100026.03;8219742;28;20047;-74
2022/05/08 09:33:23;;;;;;;10.48;5.75;;;;;;;20.07;52.10;100036.88;8235959;28;20075;-72
2022/05/08 09:37:25;;;;;;;11.43;5.43;;;;;;;20.08;51.40;100038.47;8204338;28;20056;-73
2022/05/08 09:41:30;;;;;;;15.13;5.45;;;;;;;20.02;51.10;100035.19;8202546;29;20423;-72
2022/05/08 09:45:31;;;;;;;12.02;6.13;;;;;;;20.08;50.81;100043.97;8204275;28;20054;-73
2022/05/08 09:49:32;;;;;;;8.68;5.10;;;;;;;20.11;50.24;100043.25;8204255;28;20495;-73
2022/05/08 09:53:35;;;;;;;10.77;4.80;;;;;;;20.22;49.77;100038.88;8206441;28;20055;-72
2022/05/08 09:57:39;;;;;;;11.77;6.47;;;;;;;20.27;47.93;100035.88;8203009;28;20089;-72
2022/05/08 10:01:41;;;;;;;14.32;7.10;;;;;;;20.48;50.97;100033.72;8204530;28;20059;-73
2022/05/08 10:05:42;;;;;;;15.85;6.60;;;;;;;20.72;50.82;100026.50;8204581;28;20058;-72
2022/05/08 10:14:04;;;;;;;19.00;8.88;;;;;;;20.57;51.25;100012.41;8199642;28;20054;-73
2022/05/08 10:18:26;;;;;;;16.58;8.77;;;;;;;20.88;51.95;100013.56;8204894;28;20047;-74
2022/05/08 10:22:45;;;;;;;14.85;8.10;;;;;;;21.34;50.02;100012.72;8203282;28;20062;-73
2022/05/08 10:27:37;;;;;;;15.38;7.80;;;;;;;22.08;47.78;100019.00;8203283;28;20047;-70
2022/05/08 10:31:50;;;;;;;17.88;7.15;;;;;;;21.86;47.12;100022.47;8182902;29;20047;-71
2022/05/08 10:36:13;;;;;;;10.85;6.68;;;;;;;21.17;47.46;100013.09;8199291;29;20055;-70
2022/05/08 10:40:23;;;;;;;11.75;7.13;;;;;;;20.80;48.56;100020.03;8198661;28;20102;-70
2022/05/08 10:44:33;;;;;;;11.02;6.25;;;;;;;20.96;48.82;100015.31;8198713;29;20067;-70
2022/05/08 10:48:34;;;;;;;11.00;5.20;;;;;;;21.25;48.86;100025.06;8198637;29;20095;-70
2022/05/08 10:52:45;;;;;;;10.82;6.72;;;;;;;21.53;49.16;100019.38;8182820;29;20077;-70
2022/05/08 10:56:47;;;;;;;10.88;7.18;;;;;;;21.64;49.50;100021.22;8199031;29;20498;-71
2022/05/08 11:00:49;;;;;;;10.27;6.28;;;;;;;21.23;49.60;100017.19;8167311;28;20055;-71
2022/05/08 11:04:50;;;;;;;13.13;6.03;;;;;;;20.90;49.56;100014.00;8213591;28;20058;-71
2022/05/08 11:08:59;;;;;;;8.70;5.60;;;;;;;20.64;50.44;100023.56;8202453;28;20091;-70
2022/05/08 11:13:17;;;;;;;9.73;5.23;;;;;;;20.76;50.18;100019.13;8200797;29;20047;-71
2022/05/08 11:17:19;;;;;;;11.27;4.55;;;;;;;21.00;49.11;100013.44;8202015;28;20789;-71
2022/05/08 11:21:20;;;;;;;7.63;4.50;;;;;;;21.69;44.96;100006.38;8188395;28;20110;-70
2022/05/08 11:25:22;;;;;;;7.53;5.07;;;;;;;22.13;43.70;100007.72;8206777;28;20125;-71
2022/05/08 11:29:23;;;;;;;9.88;4.93;;;;;;;22.41;44.35;100012.16;8204463;28;20507;-72
2022/05/08 11:38:05;;;;;;;9.88;4.80;;;;;;;21.37;46.97;100017.47;8200918;28;20055;-71
2022/05/08 11:42:06;;;;;;;8.70;3.92;;;;;;;21.07;47.75;100017.16;8183235;28;20055;-71
2022/05/08 11:46:08;;;;;;;11.93;4.72;;;;;;;20.85;48.03;100011.50;8215006;28;20058;-72
2022/05/08 11:50:09;;;;;;;9.48;4.90;;;;;;;20.69;48.93;100018.94;8201055;28;20565;-71
2022/05/08 11:54:17;;;;;;;6.63;4.13;;;;;;;21.49;49.06;100011.88;8200900;28;20051;-72
2022/05/08 11:58:32;;;;;;;9.27;4.20;;;;;;;21.96;46.98;100010.09;8200352;28;20039;-72
2022/05/08 12:02:40;;;;;;;8.38;4.80;;;;;;;21.59;46.30;100006.97;8200760;28;20058;-72
2022/05/08 12:06:55;;;;;;;10.73;3.70;;;;;;;21.20;47.89;100023.41;8200626;28;20054;-71
2022/05/08 12:10:57;;;;;;;7.47;4.35;;;;;;;21.06;48.18;100012.81;8200423;28;20083;-72
2022/05/08 12:15:07;;;;;;;6.57;3.80;;;;;;;20.95;47.89;100011.78;8215305;28;20059;-71
2022/05/08 12:19:13;;;;;;;5.97;3.50;;;;;;;21.72;47.69;100005.69;8213744;28;20082;-72
2022/05/08 12:23:15;;;;;;;7.00;3.72;;;;;;;22.43;44.81;99996.84;8200434;28;20479;-72
2022/05/08 12:27:16;;;;;;;8.38;3.33;;;;;;;23.03;44.09;99997.91;8200123;28;20047;-71
2022/05/08 12:31:17;;;;;;;7.85;2.90;;;;;;;23.32;42.91;99992.81;8199930;28;20126;-71
2022/05/08 12:35:19;;;;;;;6.10;2.90;;;;;;;23.14;41.62;100009.88;8197986;28;20054;-72
2022/05/08 12:39:20;;;;;;;4.22;2.65;;;;;;;22.68;42.33;99997.31;8199849;28;20480;-72
2022/05/08 12:43:25;;;;;;;4.95;2.65;;;;;;;22.38;43.37;100004.63;8213500;28;20483;-72
2022/05/08 12:47:26;;;;;;;4.15;2.70;;;;;;;22.46;43.48;100001.66;8199079;28;20047;-74
2022/05/08 12:51:28;;;;;;;6.72;2.97;;;;;;;22.37;43.39;100003.03;8201793;28;20562;-72
2022/05/08 12:55:29;;;;;;;5.45;2.38;;;;;;;22.11;42.96;100007.28;8195570;29;20066;-72
2022/05/08 12:59:42;;;;;;;9.43;2.50;;;;;;;22.62;43.18;99993.25;8191174;28;20427;-72
2022/05/08 13:03:44;;;;;;;6.90;2.50;;;;;;;23.20;40.23;99995.78;8192429;28;20055;-73
2022/05/08 13:07:44;;;;;;;2.90;2.00;;;;;;;23.07;40.24;99993.22;8160520;28;20051;-73
2022/05/08 13:11:46;;;;;;;4.47;2.58;;;;;;;23.17;40.05;99987.06;8160103;29;20058;-72
2022/05/08 13:15:47;;;;;;;4.72;2.30;;;;;;;23.21;40.63;99986.34;8192415;28;20051;-72
2022/05/08 13:19:48;;;;;;;4.95;2.20;;;;;;;23.24;40.61;99985.59;8176016;29;20492;-72
2022/05/08 13:23:50;;;;;;;7.85;1.98;;;;;;;22.98;40.40;99989.94;8191761;28;20051;-72
2022/05/08 13:27:51;;;;;;;5.10;2.03;;;;;;;22.62;40.95;99987.75;8177732;29;20051;-72
2022/05/08 13:31:55;;;;;;;4.63;1.88;;;;;;;22.94;39.90;99994.63;8199157;28;20562;-72
2022/05/08 13:35:56;;;;;;;4.47;1.98;;;;;;;25.00;37.23;99991.53;8203519;28;20062;-71
2022/05/08 13:39:59;;;;;;;3.38;1.90;;;;;;;27.39;34.01;99994.53;8203191;28;20083;-72
2022/05/08 13:44:00;;;;;;;7.28;2.25;;;;;;;27.56;32.95;99999.25;8202527;29;20415;-72
2022/05/08 13:48:01;;;;;;;6.35;2.03;;;;;;;26.62;33.32;99996.94;8197916;28;20138;-72
2022/05/08 13:52:03;;;;;;;4.25;1.77;;;;;;;26.74;33.58;99981.91;8203633;28;20051;-72
2022/05/08 13:56:07;;;;;;;3.72;1.75;;;;;;;26.03;34.04;99979.81;8183893;28;20144;-72
2022/05/08 14:00:16;;;;;;;2.65;1.45;;;;;;;24.95;35.04;99983.59;8199603;28;20062;-72
2022/05/08 14:04:17;;;;;;;3.25;1.58;;;;;;;25.53;35.31;99987.13;8202781;28;20055;-72
2022/05/08 14:08:19;;;;;;;4.15;1.88;;;;;;;28.53;31.66;99979.72;8184380;29;20170;-72
2022/05/08 14:12:20;;;;;;;5.45;1.73;;;;;;;30.44;29.17;99979.56;8202374;28;20055;-73
2022/05/08 14:16:22;;;;;;;4.85;1.80;;;;;;;30.47;28.08;99987.09;8201359;28;20778;-73
2022/05/08 14:20:23;;;;;;;3.05;1.67;;;;;;;29.25;28.17;99996.56;8202507;28;20063;-72
2022/05/08 14:24:25;;;;;;;3.08;1.80;;;;;;;26.80;31.91;99996.97;8202833;28;20047;-73
2022/05/08 14:28:27;;;;;;;2.60;1.55;;;;;;;27.23;31.65;99981.88;8201625;28;20507;-73
2022/05/08 14:36:47;;;;;;;3.80;1.98;;;;;;;25.84;33.50;99990.44;8201992;28;20483;-72
2022/05/08 14:40:49;;;;;;;3.33;1.63;;;;;;;26.42;33.55;99988.25;8202919;28;20059;-72
2022/05/08 14:44:52;;;;;;;4.13;2.00;;;;;;;26.21;32.66;99982.63;8201665;28;20415;-73
2022/05/08 14:48:54;;;;;;;5.82;1.90;;;;;;;25.14;34.53;99975.03;8205857;28;20055;-72
2022/05/08 14:52:55;;;;;;;3.40;1.83;;;;;;;24.82;35.37;99981.09;8172121;29;20468;-72
2022/05/08 14:56:56;;;;;;;2.42;1.80;;;;;;;23.99;36.25;99994.50;8172029;29;20058;-72
2022/05/08 15:00:57;;;;;;;5.00;2.10;;;;;;;23.51;37.78;99989.94;8200281;28;20134;-72
2022/05/08 15:04:58;;;;;;;4.43;2.13;;;;;;;23.16;38.36;99985.47;8202158;28;20035;-72
2022/05/08 15:09:01;;;;;;;5.35;2.00;;;;;;;22.74;39.11;99987.56;8201262;28;20059;-71
2022/05/08 15:13:02;;;;;;;2.05;1.50;;;;;;;22.95;39.00;99985.16;8206352;28;20047;-71
2022/05/08 15:17:03;;;;;;;6.47;1.92;;;;;;;22.81;39.24;99993.22;8201445;28;20074;-71
2022/05/08 15:21:04;;;;;;;7.15;2.20;;;;;;;22.77;39.61;99989.63;8196510;28;20535;-72
2022/05/08 15:25:05;;;;;;;5.07;2.22;;;;;;;22.65;39.02;99992.50;8212529;28;20047;-72
2022/05/08 15:29:06;;;;;;;6.80;2.10;;;;;;;23.11;38.55;99996.81;8201717;28;20668;-72
2022/05/08 15:33:08;;;;;;;3.72;1.85;;;;;;;23.44;38.06;100000.84;8204656;28;20050;-72
2022/05/08 15:37:09;;;;;;;5.60;1.88;;;;;;;24.32;36.43;100001.19;8231077;28;20051;-72
2022/05/08 15:41:10;;;;;;;6.18;2.17;;;;;;;24.89;34.90;100001.72;8256690;28;20450;-72
2022/05/08 15:45:11;;;;;;;7.22;2.28;;;;;;;25.93;33.44;99999.16;8209333;28;20062;-72
2022/05/08 15:49:12;;;;;;;3.83;2.20;;;;;;;25.42;33.61;100005.63;8199586;28;20673;-72
2022/05/08 15:53:13;;;;;;;4.85;1.80;;;;;;;25.24;34.45;100013.00;8182056;28;20055;-71
2022/05/08 15:57:14;;;;;;;6.78;2.00;;;;;;;25.76;33.82;100022.00;8202498;28;20059;-71
2022/05/08 16:01:16;;;;;;;3.35;1.90;;;;;;;26.19;33.33;100012.69;8218510;28;20399;-71
2022/05/08 16:05:17;;;;;;;3.47;1.90;;;;;;;27.16;31.35;100015.19;8203495;28;20047;-71
2022/05/08 16:09:21;;;;;;;6.18;2.67;;;;;;;26.14;32.75;100029.66;8201578;28;20069;-71
2022/05/08 16:26:35;;;;;;;9.60;2.30;;;;;;;22.47;39.03;100024.47;8165510;29;20390;-72
2022/05/08 16:30:36;;;;;;;3.30;2.60;;;;;;;22.20;39.56;100021.63;8175952;28;20820;-72
2022/05/08 16:34:38;;;;;;;7.03;2.42;;;;;;;21.68;40.44;100032.31;8193878;28;20043;-72
2022/05/08 16:38:39;;;;;;;7.70;2.60;;;;;;;21.24;41.31;100029.75;8195784;28;20114;-73
2022/05/08 16:42:40;;;;;;;4.93;2.20;;;;;;;21.14;42.04;100035.81;8196490;28;20503;-72
2022/05/08 16:46:41;;;;;;;3.08;1.95;;;;;;;21.08;41.79;100037.19;8194875;28;20081;-73
2022/05/08 16:50:42;;;;;;;6.38;2.33;;;;;;;20.86;42.23;100029.59;8194968;28;20491;-72
2022/05/08 16:54:43;;;;;;;4.07;2.25;;;;;;;20.62;42.49;100036.81;8195355;29;20098;-72
2022/05/08 16:58:45;;;;;;;8.00;2.40;;;;;;;20.46;43.02;100038.75;8194062;28;20048;-71
2022/05/08 17:02:45;;;;;;;6.85;2.50;;;;;;;20.28;43.40;100037.47;8217649;28;20090;-71
2022/05/08 17:06:47;;;;;;;3.40;2.08;;;;;;;20.01;43.88;100046.50;8204719;28;20055;-72
2022/05/08 17:10:49;;;;;;;6.82;2.90;;;;;;;19.79;44.23;100042.34;8216431;28;20448;-73
2022/05/08 17:14:53;;;;;;;8.18;2.58;;;;;;;19.67;44.81;100043.16;8205153;28;20051;-72
2022/05/08 17:18:54;;;;;;;5.38;2.75;;;;;;;19.53;45.41;100056.44;8218527;28;20043;-72
2022/05/08 17:22:55;;;;;;;4.38;2.30;;;;;;;19.40;46.02;100052.13;8204229;28;20051;-72
2022/05/08 17:31:20;;;;;;;3.95;2.40;;;;;;;19.12;47.07;100052.00;8204052;28;20043;-72
2022/05/08 17:35:21;;;;;;;4.07;2.67;;;;;;;18.91;47.12;100068.53;8203963;28;20052;-72
2022/05/08 17:39:22;;;;;;;3.35;2.10;;;;;;;18.77;47.70;100062.59;8190988;28;20396;-72
2022/05/08 17:43:23;;;;;;;4.03;2.42;;;;;;;18.70;47.77;100059.63;8204064;28;20158;-71
2022/05/08 17:47:24;;;;;;;7.18;2.30;;;;;;;18.59;48.25;100071.34;8203880;28;20106;-71
2022/05/08 17:51:25;;;;;;;12.95;2.30;;;;;;;18.43;48.73;100068.41;8202431;28;20055;-71
2022/05/08 17:55:28;;;;;;;5.47;1.80;;;;;;;18.28;49.40;100071.78;8186644;29;20479;-72
2022/05/08 17:59:29;;;;;;;5.10;2.42;;;;;;;18.05;50.18;100077.59;8204137;28;20051;-72
2022/05/08 18:07:50;;;;;;;3.80;2.30;;;;;;;17.71;51.96;100081.41;8203919;28;20055;-71
2022/05/08 18:11:51;;;;;;;3.70;1.80;;;;;;;17.57;52.86;100080.03;8203941;28;20051;-72
2022/05/08 18:15:53;;;;;;;3.35;2.10;;;;;;;17.42;53.89;100083.34;8216691;28;20047;-71
2022/05/08 18:19:55;;;;;;;6.57;2.10;;;;;;;17.26;53.91;100092.09;8202685;28;20051;-71
2022/05/08 18:23:55;;;;;;;4.57;2.10;;;;;;;17.09;54.81;100097.63;8215847;28;20082;-71
2022/05/08 18:27:56;;;;;;;3.30;2.20;;;;;;;16.84;55.93;100096.63;8202788;28;20958;-71
2022/05/08 18:31:57;;;;;;;3.10;2.30;;;;;;;16.65;56.48;100109.03;8203541;28;20087;-71
2022/05/08 18:36:00;;;;;;;3.00;2.20;;;;;;;16.40;57.09;100103.25;8204166;28;20126;-71
2022/05/08 18:40:01;;;;;;;3.47;2.08;;;;;;;16.20;57.57;100114.81;8215423;28;20047;-71
2022/05/08 18:44:03;;;;;;;3.45;2.20;;;;;;;15.98;58.14;100117.69;8200801;28;20094;-72
2022/05/08 18:48:04;;;;;;;5.22;2.63;;;;;;;15.79;58.77;100119.94;8199481;29;20063;-71
2022/05/08 18:52:10;;;;;;;8.23;2.75;;;;;;;15.58;59.49;100131.44;8200528;29;20058;-71
2022/05/08 18:56:11;;;;;;;5.85;2.90;;;;;;;15.41;59.72;100131.34;8201792;28;20137;-71
2022/05/08 19:00:14;;;;;;;6.85;3.53;;;;;;;15.23;60.54;100143.28;8200775;28;20058;-71
2022/05/08 19:04:20;;;;;;;11.77;3.85;;;;;;;15.08;60.90;100143.69;8214633;28;20487;-72
2022/05/08 19:08:21;;;;;;;12.82;5.15;;;;;;;14.92;61.46;100150.66;8188872;28;20519;-72
2022/05/08 19:12:22;;;;;;;30.25;4.30;;;;;;;14.77;61.71;100160.81;8200552;28;20082;-72
2022/05/08 19:16:23;;;;;;;11.10;3.95;;;;;;;14.64;62.24;100156.28;8197060;28;20058;-71
2022/05/08 19:20:24;;;;;;;8.45;3.70;;;;;;;14.51;62.50;100165.28;8183427;28;20107;-71
2022/05/08 19:24:25;;;;;;;6.13;3.53;;;;;;;14.35;62.83;100169.44;8183541;28;20107;-71
2022/05/08 19:28:29;;;;;;;10.95;4.25;;;;;;;14.20;63.22;100172.50;8175382;29;20051;-71
2022/05/08 19:41:09;;;;;;;17.17;5.57;;;;;;;13.86;64.17;100184.66;8181234;28;20370;-72
2022/05/08 19:45:10;;;;;;;15.40;5.18;;;;;;;13.75;64.48;100177.81;8173193;29;20047;-72
2022/05/08 19:49:13;;;;;;;13.13;4.55;;;;;;;13.67;64.75;100186.69;8181538;29;20054;-72
2022/05/08 19:53:14;;;;;;;11.50;4.80;;;;;;;13.51;65.30;100183.47;8186468;28;20044;-72
2022/05/08 19:57:18;;;;;;;8.40;4.47;;;;;;;13.40;65.66;100181.25;8187063;28;20517;-71